Time;durP1;ratioP1;P1;durP2;ratioP2;P2;SDS_P1;SDS_P2;PMS_P1;PMS_P2;Temp;Humidity;BMP_temperature;BMP_pressure;BME280_temperature;BME280_humidity;BME280_pressure;Samples;Min_cycle;Max_cycle;Signal;HPM_P1;HPM_P2
2023/03/30 00:00:31;;;;;;;11.07;4.40;;;;;;;12.22;85.30;100505.84;5054362;28;20029;-56
2023/03/30 00:02:57;;;;;;;11.07;4.05;;;;;;;12.24;84.88;100518.78;5054178;28;20029;-52
2023/03/30 00:05:24;;;;;;;11.10;3.88;;;;;;;12.29;83.89;100511.97;5053622;28;20022;-54
2023/03/30 00:07:50;;;;;;;10.38;4.15;;;;;;;12.35;83.16;100494.00;5054383;28;20045;-54
2023/03/30 00:10:18;;;;;;;10.18;4.22;;;;;;;12.46;81.73;100497.63;5053901;28;20060;-54
2023/03/30 00:12:45;;;;;;;9.68;3.53;;;;;;;12.44;82.38;100488.97;5053681;28;20094;-55
2023/03/30 00:15:12;;;;;;;9.10;3.53;;;;;;;12.55;80.37;100484.00;5053830;28;20120;-54
2023/03/30 00:17:37;;;;;;;8.05;3.30;;;;;;;12.54;80.82;100476.19;5054203;28;20029;-54
2023/03/30 00:20:07;;;;;;;16.73;3.47;;;;;;;12.42;81.19;100482.03;5053036;28;20031;-55
2023/03/30 00:22:33;;;;;;;10.02;3.78;;;;;;;12.46;80.39;100471.78;5053806;28;20390;-54
2023/03/30 00:24:58;;;;;;;9.10;3.70;;;;;;;12.51;80.13;100472.75;5053489;28;20029;-54
2023/03/30 00:27:24;;;;;;;9.57;3.80;;;;;;;12.55;80.10;100477.94;5053272;28;20029;-54
2023/03/30 00:29:49;;;;;;;7.93;3.20;;;;;;;12.56;80.28;100477.97;5053951;28;20029;-55
2023/03/30 00:32:15;;;;;;;8.45;3.30;;;;;;;12.57;80.36;100466.78;5053175;28;20025;-54
2023/03/30 00:34:41;;;;;;;7.60;3.42;;;;;;;12.60;79.73;100473.72;5053650;28;20013;-54
2023/03/30 00:37:10;;;;;;;10.80;3.33;;;;;;;12.56;79.83;100469.34;5053443;28;20066;-54
2023/03/30 00:39:35;;;;;;;8.00;3.13;;;;;;;12.53;80.11;100462.41;5052483;28;20029;-54
2023/03/30 00:42:01;;;;;;;12.93;3.85;;;;;;;12.50;79.95;100457.22;5053494;28;20025;-54
2023/03/30 00:45:03;;;;;;;7.10;3.28;;;;;;;12.48;80.89;100452.00;5053703;28;20428;-55
2023/03/30 00:47:29;;;;;;;9.10;3.65;;;;;;;12.43;80.23;100435.53;5052808;28;20029;-55
2023/03/30 00:49:55;;;;;;;9.48;3.47;;;;;;;12.45;79.81;100428.69;5052841;28;20446;-59
2023/03/30 00:52:23;;;;;;;7.90;3.25;;;;;;;12.47;79.56;100433.88;5053588;28;20028;-56
2023/03/30 00:54:51;;;;;;;9.18;3.30;;;;;;;12.46;79.37;100425.28;5052855;28;20060;-54
2023/03/30 00:57:18;;;;;;;8.27;3.70;;;;;;;12.44;79.65;100434.69;5053192;28;20028;-54
2023/03/30 00:59:44;;;;;;;9.73;3.23;;;;;;;12.35;80.26;100429.41;5053530;28;20020;-53
2023/03/30 01:02:09;;;;;;;7.80;3.35;;;;;;;12.32;80.17;100429.38;5051993;28;20040;-54
2023/03/30 01:04:36;;;;;;;9.32;3.28;;;;;;;12.29;80.95;100418.97;5053223;28;20372;-55
2023/03/30 01:07:03;;;;;;;8.80;3.38;;;;;;;12.26;80.78;100418.94;5053015;28;20036;-54
2023/03/30 01:09:28;;;;;;;9.57;3.37;;;;;;;12.23;81.33;100421.47;5052526;28;20091;-54
2023/03/30 01:11:54;;;;;;;9.07;3.20;;;;;;;12.18;81.28;100421.38;5052981;28;20473;-55
2023/03/30 01:14:19;;;;;;;9.73;3.60;;;;;;;12.17;81.29;100420.53;5053153;28;20368;-55
2023/03/30 01:17:00;;;;;;;10.70;3.80;;;;;;;12.11;81.53;100415.25;5052438;28;20031;-55
2023/03/30 01:19:53;;;;;;;8.98;3.38;;;;;;;12.04;82.44;100421.16;5053211;28;20029;-54
2023/03/30 01:23:09;;;;;;;9.27;3.70;;;;;;;11.97;82.99;100427.06;5052052;28;20383;-54
2023/03/30 01:26:02;;;;;;;7.90;3.10;;;;;;;11.91;83.01;100424.34;5043506;28;20400;-54
2023/03/30 01:28:52;;;;;;;8.32;3.40;;;;;;;11.84;83.54;100431.97;5053017;28;20294;-54
2023/03/30 01:31:27;;;;;;;9.38;3.45;;;;;;;11.85;83.27;100423.41;5052297;28;20087;-55
2023/03/30 01:34:11;;;;;;;7.45;3.53;;;;;;;11.80;83.74;100413.81;5053008;28;20033;-54
2023/03/30 01:36:43;;;;;;;8.82;3.00;;;;;;;11.81;84.02;100421.63;5052165;28;20051;-55
2023/03/30 01:39:33;;;;;;;11.38;3.33;;;;;;;11.84;84.40;100413.06;5052476;28;20028;-54
2023/03/30 01:42:17;;;;;;;8.55;3.78;;;;;;;11.83;84.62;100413.88;5052150;28;20036;-54
2023/03/30 01:44:52;;;;;;;11.93;3.38;;;;;;;11.84;83.91;100401.00;5051960;28;20366;-55
2023/03/30 01:47:19;;;;;;;9.48;3.35;;;;;;;11.87;84.08;100402.75;5052522;28;20032;-55
2023/03/30 01:49:56;;;;;;;8.15;3.30;;;;;;;11.81;84.30;100385.47;5051830;28;20112;-55
2023/03/30 01:52:37;;;;;;;8.63;3.35;;;;;;;11.89;83.89;100382.13;5056236;28;20102;-55
2023/03/30 01:55:12;;;;;;;10.77;3.58;;;;;;;11.93;84.00;100381.31;5056656;28;20029;-54
2023/03/30 01:57:46;;;;;;;9.45;2.97;;;;;;;12.05;83.41;100386.75;5056083;28;20031;-55
2023/03/30 02:00:16;;;;;;;8.52;3.35;;;;;;;12.21;82.91;100392.16;5056214;28;20392;-54
2023/03/30 02:02:51;;;;;;;6.65;2.95;;;;;;;12.34;82.55;100414.72;5056434;28;20049;-55
2023/03/30 02:05:18;;;;;;;12.27;3.03;;;;;;;12.64;81.11;100409.16;5055646;28;20151;-53
2023/03/30 02:07:52;;;;;;;7.70;2.15;;;;;;;12.74;80.39;100397.22;5056784;28;20078;-55
2023/03/30 02:10:21;;;;;;;7.15;2.50;;;;;;;12.83;79.74;100388.72;5056357;28;20108;-54
2023/03/30 02:12:47;;;;;;;7.53;2.47;;;;;;;12.91;79.03;100397.47;5055826;28;20084;-54
2023/03/30 02:15:15;;;;;;;6.75;2.28;;;;;;;12.93;78.95;100413.00;5056111;28;20032;-54
2023/03/30 02:17:41;;;;;;;10.45;2.75;;;;;;;12.93;79.06;100397.47;5056266;28;20029;-55
2023/03/30 02:20:11;;;;;;;7.63;2.55;;;;;;;13.01;78.53;100408.78;5055515;28;20032;-55
2023/03/30 02:22:37;;;;;;;7.75;2.53;;;;;;;13.07;78.41;100408.84;5056177;28;20426;-54
2023/03/30 02:25:05;;;;;;;11.30;2.58;;;;;;;13.15;77.73;100394.28;5055250;28;20025;-54
2023/03/30 02:27:31;;;;;;;6.25;2.50;;;;;;;13.18;77.12;100389.16;5056114;28;20472;-54
2023/03/30 02:29:57;;;;;;;10.30;2.60;;;;;;;13.12;77.59;100394.25;5055584;28;20108;-55
2023/03/30 02:32:30;;;;;;;8.02;2.85;;;;;;;13.10;77.49;100397.66;5055240;28;20116;-54
2023/03/30 02:35:35;;;;;;;9.25;2.80;;;;;;;13.10;78.17;100411.47;5055876;28;20028;-56
2023/03/30 02:38:19;;;;;;;9.18;2.88;;;;;;;13.11;77.51;100405.44;5047335;28;20044;-54
2023/03/30 02:40:59;;;;;;;11.02;3.10;;;;;;;13.07;78.21;100406.25;5055416;28;20158;-54
2023/03/30 02:43:43;;;;;;;8.45;2.72;;;;;;;13.05;78.57;100396.75;5055888;28;20502;-54
2023/03/30 02:46:25;;;;;;;10.02;3.10;;;;;;;13.05;78.14;100397.59;5054936;28;20032;-55
2023/03/30 02:49:30;;;;;;;11.60;3.20;;;;;;;13.02;78.85;100397.56;5055600;28;20495;-55
2023/03/30 02:52:32;;;;;;;10.23;3.22;;;;;;;13.00;78.65;100401.84;5055437;28;20396;-54
2023/03/30 02:54:58;;;;;;;7.82;2.67;;;;;;;12.92;78.91;100403.47;5054688;28;20029;-55
2023/03/30 02:57:31;;;;;;;7.57;3.10;;;;;;;12.90;78.79;100402.59;5055809;28;20376;-55
2023/03/30 03:00:07;;;;;;;9.98;3.22;;;;;;;12.88;79.03;100396.53;5055269;28;20329;-55
2023/03/30 03:02:39;;;;;;;13.63;3.50;;;;;;;12.82;79.40;100393.03;5055114;28;20138;-54
2023/03/30 03:05:07;;;;;;;11.77;3.22;;;;;;;12.79;79.72;100400.72;5055240;28;20024;-55
2023/03/30 03:07:33;;;;;;;6.90;2.83;;;;;;;12.77;80.15;100391.22;5054567;28;20403;-53
2023/03/30 03:09:59;;;;;;;8.85;2.60;;;;;;;12.75;79.81;100378.25;5055156;28;20040;-54
2023/03/30 03:12:25;;;;;;;10.57;3.30;;;;;;;12.73;79.95;100390.31;5055513;28;20021;-54
2023/03/30 03:14:51;;;;;;;9.38;3.15;;;;;;;12.77;79.54;100381.75;5054461;28;20468;-56
2023/03/30 03:17:21;;;;;;;10.70;2.83;;;;;;;12.82;79.13;100385.28;5055029;28;20027;-54
2023/03/30 03:19:47;;;;;;;12.07;3.88;;;;;;;12.81;79.45;100391.28;5055359;28;20044;-54
2023/03/30 03:22:12;;;;;;;8.93;3.05;;;;;;;12.80;79.85;100397.28;5054017;28;20373;-55
2023/03/30 03:24:38;;;;;;;8.75;2.97;;;;;;;12.83;79.37;100396.47;5055268;28;20104;-55
2023/03/30 03:27:03;;;;;;;11.10;3.00;;;;;;;12.83;79.66;100392.19;5054901;28;20346;-54
2023/03/30 03:29:28;;;;;;;9.18;2.88;;;;;;;12.79;79.90;100389.53;5054640;28;20065;-55
2023/03/30 03:31:53;;;;;;;5.57;2.28;;;;;;;12.82;79.09;100376.63;5054739;28;20021;-54
2023/03/30 03:34:19;;;;;;;9.45;2.75;;;;;;;12.80;79.70;100381.78;5054836;28;20070;-54
2023/03/30 03:36:44;;;;;;;6.93;2.40;;;;;;;12.76;79.78;100390.34;5054012;28;20040;-54
2023/03/30 03:39:09;;;;;;;7.30;2.60;;;;;;;12.72;80.37;100378.25;5054454;28;20060;-55
2023/03/30 03:41:35;;;;;;;5.18;2.53;;;;;;;12.76;79.92;100387.75;5054902;28;20037;-54
2023/03/30 03:44:00;;;;;;;7.10;2.53;;;;;;;12.78;79.54;100378.31;5053819;28;20017;-54
2023/03/30 03:46:25;;;;;;;7.70;2.88;;;;;;;12.73;79.98;100364.47;5054696;28;20025;-55
2023/03/30 03:48:50;;;;;;;11.30;3.20;;;;;;;12.68;80.22;100366.13;5054745;28;20029;-54
2023/03/30 03:51:16;;;;;;;6.85;2.70;;;;;;;12.60;81.37;100375.47;5053507;28;20029;-54
2023/03/30 03:53:41;;;;;;;10.82;2.90;;;;;;;12.58;81.07;100377.19;5054729;28;20464;-54
2023/03/30 03:56:07;;;;;;;10.35;3.10;;;;;;;12.55;81.20;100371.97;5054675;28;20115;-55
2023/03/30 03:58:32;;;;;;;8.48;2.60;;;;;;;12.49;81.94;100371.03;5053711;28;20073;-54
2023/03/30 04:00:59;;;;;;;8.18;2.58;;;;;;;12.31;83.95;100370.78;5053968;28;20131;-55
2023/03/30 04:03:24;;;;;;;8.63;2.90;;;;;;;12.24;84.14;100359.47;5053922;28;20419;-54
2023/03/30 04:05:50;;;;;;;11.13;3.13;;;;;;;12.14;84.69;100358.47;5054312;28;20491;-54
2023/03/30 04:08:16;;;;;;;10.88;3.00;;;;;;;12.06;85.97;100367.81;5053951;28;20483;-55
2023/03/30 04:10:42;;;;;;;8.93;3.20;;;;;;;12.03;86.49;100372.91;5053599;28;20075;-54
2023/03/30 04:13:08;;;;;;;10.13;3.13;;;;;;;11.96;87.97;100378.84;5053473;28;20025;-54
2023/03/30 04:15:33;;;;;;;10.00;2.88;;;;;;;11.93;88.92;100369.31;5054158;28;20377;-55
2023/03/30 04:18:00;;;;;;;8.57;3.20;;;;;;;11.85;90.05;100369.19;5053200;28;20029;-53
2023/03/30 04:20:27;;;;;;;9.60;2.78;;;;;;;11.77;91.69;100359.56;5054158;28;20029;-55
2023/03/30 04:22:52;;;;;;;12.98;3.72;;;;;;;11.68;93.85;100355.09;5054339;28;20025;-54
2023/03/30 04:25:20;;;;;;;11.02;3.92;;;;;;;11.63;94.20;100349.88;5053077;28;20048;-55
2023/03/30 04:27:49;;;;;;;;;;;;;;;11.62;93.69;100355.00;5054475;28;20100;-55
2023/03/30 04:30:14;;;;;;;12.68;3.90;;;;;;;11.48;96.46;100350.47;5053471;28;19920;-49
2023/03/30 04:32:40;;;;;;;12.60;3.45;;;;;;;11.42;97.31;100347.78;5053177;28;20025;-55
2023/03/30 04:35:06;;;;;;;10.63;3.83;;;;;;;11.35;98.24;100343.34;5053454;28;20044;-54
2023/03/30 04:37:32;;;;;;;9.68;3.50;;;;;;;11.32;98.71;100338.13;5053562;28;20032;-54
2023/03/30 04:40:06;;;;;;;11.13;3.72;;;;;;;11.28;99.38;100342.34;5052854;28;20025;-54
2023/03/30 04:42:36;;;;;;;9.43;3.67;;;;;;;11.27;99.31;100347.50;5053713;28;20029;-54
2023/03/30 04:45:11;;;;;;;10.55;3.67;;;;;;;11.24;100.00;100342.28;5053368;28;20059;-55
2023/03/30 04:47:36;;;;;;;14.48;3.65;;;;;;;11.20;100.00;100334.47;5052746;28;20100;-54
2023/03/30 04:50:02;;;;;;;12.38;3.55;;;;;;;11.19;99.93;100337.91;5053028;28;20119;-55
2023/03/30 04:52:27;;;;;;;9.85;4.15;;;;;;;11.13;100.00;100336.91;5053351;28;20032;-55
2023/03/30 04:54:53;;;;;;;9.77;3.78;;;;;;;11.10;100.00;100335.13;5053090;28;20112;-55
2023/03/30 04:57:18;;;;;;;13.18;3.97;;;;;;;11.06;100.00;100335.91;5053266;28;20029;-54
2023/03/30 04:59:44;;;;;;;11.05;4.30;;;;;;;11.03;100.00;100338.44;5052591;28;20033;-54
2023/03/30 05:02:11;;;;;;;11.13;4.05;;;;;;;11.02;100.00;100344.44;5052705;28;20041;-53
2023/03/30 05:04:37;;;;;;;11.23;4.13;;;;;;;11.01;100.00;100361.63;5053526;28;20029;-54
2023/03/30 05:07:04;;;;;;;10.25;4.32;;;;;;;10.99;100.00;100381.34;5051943;28;20465;-54
2023/03/30 05:09:29;;;;;;;11.43;4.40;;;;;;;10.93;100.00;100380.38;5053278;28;20037;-55
2023/03/30 05:11:55;;;;;;;14.88;4.90;;;;;;;10.83;100.00;100382.75;5052875;28;20025;-55
2023/03/30 05:14:20;;;;;;;11.43;4.72;;;;;;;10.75;100.00;100375.69;5052419;28;20017;-54
2023/03/30 05:16:46;;;;;;;13.23;5.50;;;;;;;10.65;100.00;100380.66;5053029;28;20029;-55
2023/03/30 05:19:11;;;;;;;15.20;5.45;;;;;;;10.59;100.00;100379.63;5052892;28;20036;-55
2023/03/30 05:21:37;;;;;;;17.52;6.22;;;;;;;10.48;100.00;100385.44;5052205;28;20431;-54
2023/03/30 05:24:02;;;;;;;14.32;5.20;;;;;;;10.44;100.00;100388.75;5052772;28;20467;-55
2023/03/30 05:26:28;;;;;;;10.70;5.38;;;;;;;10.39;100.00;100400.66;5052979;28;20040;-55
2023/03/30 05:28:53;;;;;;;14.32;5.85;;;;;;;10.34;100.00;100390.25;5052131;28;20024;-56
2023/03/30 05:31:19;;;;;;;20.23;5.53;;;;;;;10.31;100.00;100402.16;5052599;28;20036;-54
2023/03/30 05:33:45;;;;;;;24.08;6.93;;;;;;;10.27;100.00;100406.38;5052653;28;20099;-54
2023/03/30 05:36:11;;;;;;;14.18;6.13;;;;;;;10.25;100.00;100404.59;5051924;28;20035;-54
2023/03/30 05:38:36;;;;;;;17.60;6.40;;;;;;;10.23;100.00;100398.56;5052731;28;20028;-54
2023/03/30 05:41:03;;;;;;;15.90;6.82;;;;;;;10.21;100.00;100403.66;5052447;28;20033;-55
2023/03/30 05:43:29;;;;;;;14.10;6.35;;;;;;;10.20;100.00;100401.94;5052001;28;20099;-54
2023/03/30 05:45:55;;;;;;;13.68;6.32;;;;;;;10.19;100.00;100401.03;5052282;28;20543;-54
2023/03/30 05:48:21;;;;;;;15.45;6.53;;;;;;;10.17;100.00;100397.56;5052744;28;20022;-54
2023/03/30 05:50:47;;;;;;;15.38;6.38;;;;;;;10.17;100.00;100401.84;5051707;28;20078;-56
2023/03/30 05:53:12;;;;;;;13.70;6.93;;;;;;;10.17;100.00;100401.84;5052264;28;20036;-55
2023/03/30 05:55:37;;;;;;;14.57;6.30;;;;;;;10.14;100.00;100392.34;5052618;28;20472;-54
2023/03/30 05:58:03;;;;;;;16.38;6.70;;;;;;;10.13;100.00;100384.56;5051654;28;20104;-54
2023/03/30 06:00:32;;;;;;;13.57;6.40;;;;;;;10.10;100.00;100385.38;5052550;28;20040;-54
2023/03/30 06:02:57;;;;;;;16.70;6.63;;;;;;;10.06;100.00;100388.72;5051647;28;20029;-54
2023/03/30 06:05:23;;;;;;;14.57;6.07;;;;;;;10.05;100.00;100403.28;5052592;28;20025;-54
2023/03/30 06:07:48;;;;;;;19.02;6.53;;;;;;;10.03;100.00;100409.22;5052422;28;20387;-55
2023/03/30 06:10:14;;;;;;;17.80;6.95;;;;;;;10.02;100.00;100412.66;5051386;28;20033;-55
2023/03/30 06:12:40;;;;;;;17.65;6.97;;;;;;;9.99;100.00;100391.97;5052419;28;20082;-53
2023/03/30 06:15:07;;;;;;;17.67;7.07;;;;;;;10.00;100.00;100401.44;5052051;28;20032;-54
2023/03/30 06:17:33;;;;;;;18.38;7.10;;;;;;;10.00;100.00;100407.44;5051849;28;20025;-55
2023/03/30 06:19:58;;;;;;;15.65;6.22;;;;;;;10.01;100.00;100411.75;5052215;28;20051;-55
2023/03/30 06:22:24;;;;;;;19.38;5.88;;;;;;;10.02;100.00;100408.38;5052489;28;20025;-54
2023/03/30 06:24:49;;;;;;;16.83;6.25;;;;;;;10.04;100.00;100405.81;5051743;28;20425;-54
2023/03/30 06:27:14;;;;;;;17.67;6.47;;;;;;;10.05;100.00;100410.13;5052034;28;20048;-54
2023/03/30 06:29:40;;;;;;;20.67;6.25;;;;;;;10.07;100.00;100411.06;5052033;28;20025;-54
2023/03/30 06:32:06;;;;;;;23.33;6.70;;;;;;;10.10;100.00;100418.84;5051202;28;20532;-54
2023/03/30 06:34:31;;;;;;;19.80;6.20;;;;;;;10.14;100.00;100423.22;5052377;28;20104;-54
2023/03/30 06:36:57;;;;;;;18.10;5.75;;;;;;;10.21;100.00;100425.13;5052793;28;20082;-53
2023/03/30 06:39:22;;;;;;;22.88;6.78;;;;;;;10.27;100.00;100428.69;5055008;28;20484;-54
2023/03/30 06:41:47;;;;;;;24.70;7.32;;;;;;;10.25;100.00;100426.09;5055792;28;20017;-54
2023/03/30 06:44:16;;;;;;;24.27;6.43;;;;;;;10.20;100.00;100433.69;5055457;28;20068;-53
2023/03/30 06:46:41;;;;;;;18.00;6.30;;;;;;;10.16;100.00;100439.59;5055268;28;20029;-54
2023/03/30 06:49:07;;;;;;;23.13;6.93;;;;;;;10.15;100.00;100432.72;5055510;28;20017;-54
2023/03/30 06:51:34;;;;;;;18.88;5.80;;;;;;;10.11;100.00;100437.72;5055841;28;20027;-53
2023/03/30 06:54:00;;;;;;;18.88;6.05;;;;;;;10.07;100.00;100434.25;5054721;28;20017;-53
2023/03/30 06:56:25;;;;;;;22.45;6.40;;;;;;;9.99;100.00;100433.16;5055451;28;20036;-54
2023/03/30 06:58:51;;;;;;;23.15;6.45;;;;;;;9.92;100.00;100436.41;5055525;28;20033;-54
2023/03/30 07:01:17;;;;;;;20.20;5.90;;;;;;;9.86;100.00;100444.84;5054184;28;20485;-54
2023/03/30 07:03:42;;;;;;;22.35;5.97;;;;;;;9.88;100.00;100444.03;5055422;28;20357;-54
2023/03/30 07:06:09;;;;;;;19.30;5.68;;;;;;;9.93;100.00;100443.28;5054536;28;20032;-55
2023/03/30 07:08:35;;;;;;;21.05;5.72;;;;;;;10.00;100.00;100440.06;5055346;28;20029;-54
2023/03/30 07:11:02;;;;;;;30.92;6.03;;;;;;;10.10;100.00;100441.16;5055053;28;20033;-54
2023/03/30 07:13:27;;;;;;;23.27;5.97;;;;;;;10.18;100.00;100444.78;5054569;28;20204;-55
2023/03/30 07:15:53;;;;;;;21.35;5.53;;;;;;;10.27;100.00;100446.72;5055400;28;20107;-54
2023/03/30 07:18:18;;;;;;;18.05;5.15;;;;;;;10.35;100.00;100440.03;5055267;28;20040;-54
2023/03/30 07:20:44;;;;;;;17.35;4.93;;;;;;;10.44;100.00;100437.72;5054425;28;20400;-55
2023/03/30 07:23:10;;;;;;;18.80;5.38;;;;;;;10.50;100.00;100437.84;5054871;28;20024;-53
2023/03/30 07:25:37;;;;;;;23.98;5.30;;;;;;;10.62;100.00;100446.72;5054987;28;20384;-54
2023/03/30 07:28:05;;;;;;;19.35;4.90;;;;;;;10.80;100.00;100446.25;5053795;28;20082;-54
2023/03/30 07:30:34;;;;;;;19.17;4.80;;;;;;;11.03;100.00;100455.34;5055025;28;20025;-53
2023/03/30 07:33:00;;;;;;;20.02;4.60;;;;;;;11.14;100.00;100457.28;5054629;28;20068;-54
2023/03/30 07:35:26;;;;;;;20.25;4.45;;;;;;;11.23;100.00;100469.50;5054230;28;20033;-52
2023/03/30 07:37:51;;;;;;;14.25;4.22;;;;;;;11.32;100.00;100457.69;5054851;28;20067;-53
2023/03/30 07:40:18;;;;;;;22.85;4.90;;;;;;;11.36;100.00;100463.75;5054327;28;20025;-51
2023/03/30 07:42:43;;;;;;;21.38;5.22;;;;;;;11.41;100.00;100464.72;5054018;28;20021;-54
2023/03/30 07:45:09;;;;;;;19.00;4.47;;;;;;;11.45;100.00;100469.13;5054631;28;20039;-54
2023/03/30 07:47:35;;;;;;;20.08;4.55;;;;;;;11.50;100.00;100472.66;5054566;28;20056;-54
2023/03/30 07:50:00;;;;;;;14.77;3.85;;;;;;;11.56;100.00;100483.94;5052756;28;20055;-53
2023/03/30 07:52:26;;;;;;;20.70;4.70;;;;;;;11.54;100.00;100476.16;5054583;28;20395;-54
2023/03/30 07:54:53;;;;;;;20.13;4.82;;;;;;;11.61;100.00;100488.34;5054530;28;20520;-50
2023/03/30 07:57:19;;;;;;;19.98;4.85;;;;;;;11.62;100.00;100482.34;5053751;28;20475;-53
2023/03/30 07:59:45;;;;;;;18.60;4.65;;;;;;;11.66;100.00;100493.63;5054613;28;20036;-54
2023/03/30 08:02:12;;;;;;;19.63;4.40;;;;;;;11.72;100.00;100491.13;5053956;28;20045;-52
2023/03/30 08:04:37;;;;;;;18.97;4.23;;;;;;;11.78;100.00;100491.25;5053799;28;20036;-51
2023/03/30 08:07:03;;;;;;;25.45;4.35;;;;;;;11.82;100.00;100499.94;5054050;28;20025;-54
2023/03/30 08:09:29;;;;;;;21.95;4.50;;;;;;;11.83;100.00;100499.97;5053522;28;20074;-53
2023/03/30 08:11:55;;;;;;;17.55;4.07;;;;;;;11.81;100.00;100506.81;5054000;28;20079;-52
2023/03/30 08:14:22;;;;;;;25.27;5.30;;;;;;;11.89;100.00;100495.75;5054645;28;20479;-54
2023/03/30 08:16:48;;;;;;;21.80;4.85;;;;;;;11.98;100.00;100511.44;5053375;28;20732;-55
2023/03/30 08:19:13;;;;;;;17.73;4.68;;;;;;;12.07;100.00;100509.06;5053588;28;20479;-51
2023/03/30 08:21:38;;;;;;;21.25;5.18;;;;;;;12.16;100.00;100509.22;5054036;28;20519;-53
2023/03/30 08:24:04;;;;;;;22.33;5.35;;;;;;;12.13;100.00;100516.88;5052863;28;20068;-53
2023/03/30 08:26:29;;;;;;;26.23;5.13;;;;;;;12.08;100.00;100512.50;5054389;28;20029;-53
2023/03/30 08:28:55;;;;;;;18.23;4.60;;;;;;;12.04;100.00;100516.72;5053819;28;20461;-53
2023/03/30 08:31:20;;;;;;;24.98;5.15;;;;;;;12.09;99.98;100520.25;5052846;28;20587;-53
2023/03/30 08:33:47;;;;;;;25.08;4.93;;;;;;;12.22;100.00;100520.50;5053873;28;20465;-54
2023/03/30 08:36:12;;;;;;;22.85;4.50;;;;;;;12.18;97.95;100510.09;5053542;28;20036;-53
2023/03/30 08:38:38;;;;;;;19.63;4.40;;;;;;;12.23;97.58;100522.25;5052899;28;20021;-53
2023/03/30 08:41:27;;;;;;;16.65;4.55;;;;;;;12.31;97.50;100515.47;5053545;28;20162;-53
2023/03/30 08:43:57;;;;;;;21.50;5.20;;;;;;;12.42;97.13;100508.78;5053673;28;20056;-52
2023/03/30 08:46:23;;;;;;;20.55;5.28;;;;;;;12.50;95.47;100514.94;5052850;28;20028;-53
2023/03/30 08:48:51;;;;;;;21.75;5.38;;;;;;;12.65;93.95;100513.44;5053446;28;20120;-52
2023/03/30 08:51:30;;;;;;;18.70;4.88;;;;;;;12.76;91.86;100527.41;5053056;28;20040;-53
2023/03/30 08:54:05;;;;;;;25.13;5.28;;;;;;;12.90;92.14;100526.72;5052526;28;20024;-54
2023/03/30 08:56:33;;;;;;;24.20;4.78;;;;;;;12.96;91.03;100529.41;5053478;28;20071;-53
2023/03/30 08:59:18;;;;;;;19.63;4.65;;;;;;;12.95;90.23;100530.25;5052364;28;20021;-55
2023/03/30 09:01:55;;;;;;;24.48;5.15;;;;;;;12.83;88.99;100518.91;5053074;28;20488;-53
2023/03/30 09:04:32;;;;;;;18.00;4.72;;;;;;;12.82;87.97;100519.75;5053364;28;20040;-54
2023/03/30 09:07:19;;;;;;;25.67;6.15;;;;;;;12.81;88.16;100528.34;5052135;28;20032;-53
2023/03/30 09:09:47;;;;;;;20.85;5.07;;;;;;;12.90;90.08;100531.91;5053033;28;20484;-53
2023/03/30 09:12:30;;;;;;;21.70;5.20;;;;;;;12.87;87.01;100526.69;5052843;28;20060;-53
2023/03/30 09:15:14;;;;;;;18.83;4.85;;;;;;;12.87;87.35;100526.69;5052307;28;20112;-52
2023/03/30 09:17:45;;;;;;;23.65;5.40;;;;;;;12.79;84.84;100532.59;5053174;28;20025;-52
2023/03/30 09:20:19;;;;;;;21.85;5.57;;;;;;;12.81;84.52;100538.69;5051854;28;20074;-53
2023/03/30 09:22:46;;;;;;;20.30;5.50;;;;;;;12.88;85.79;100533.63;5053176;28;20036;-52
2023/03/30 09:25:24;;;;;;;23.70;4.97;;;;;;;12.95;84.19;100540.59;5052775;28;20100;-51
2023/03/30 09:28:17;;;;;;;21.88;5.40;;;;;;;12.96;85.47;100548.41;5052087;28;20479;-53
2023/03/30 09:30:47;;;;;;;23.55;5.43;;;;;;;12.93;85.23;100560.44;5042425;28;20041;-53
2023/03/30 09:33:31;;;;;;;22.50;5.45;;;;;;;12.84;84.66;100559.41;5052658;28;20033;-52
2023/03/30 09:36:10;;;;;;;22.10;5.60;;;;;;;12.87;84.49;100562.91;5051703;28;20486;-53
2023/03/30 09:38:40;;;;;;;21.42;5.63;;;;;;;12.82;84.73;100562.81;5052581;28;20083;-52
2023/03/30 09:41:23;;;;;;;21.17;5.35;;;;;;;13.10;84.24;100571.03;5051697;28;20499;-52
2023/03/30 09:43:50;;;;;;;25.25;5.75;;;;;;;13.66;81.76;100564.91;5052795;28;20029;-52
2023/03/30 09:46:16;;;;;;;27.42;6.45;;;;;;;13.94;80.92;100568.72;5052423;28;20025;-54
2023/03/30 09:48:44;;;;;;;22.40;5.55;;;;;;;14.31;78.81;100576.00;5051928;28;20021;-53
2023/03/30 09:51:35;;;;;;;24.30;6.43;;;;;;;14.57;75.36;100580.56;5052249;28;20089;-54
2023/03/30 09:54:05;;;;;;;29.55;6.18;;;;;;;14.29;74.76;100575.97;5050885;28;20114;-53
2023/03/30 09:56:33;;;;;;;25.48;5.85;;;;;;;13.98;75.99;100564.41;5051973;28;20063;-54
2023/03/30 09:59:27;;;;;;;25.77;5.95;;;;;;;14.24;76.43;100576.78;5052185;28;20025;-53
2023/03/30 10:01:52;;;;;;;30.88;6.97;;;;;;;14.47;75.84;100575.28;5052324;28;20055;-54
2023/03/30 10:04:17;;;;;;;26.83;6.15;;;;;;;14.82;73.31;100576.44;5051350;28;20029;-54
2023/03/30 10:06:46;;;;;;;28.58;5.95;;;;;;;15.41;71.80;100580.28;5052561;28;20075;-54
2023/03/30 10:09:12;;;;;;;24.55;5.75;;;;;;;15.00;69.22;100574.88;5051432;28;20033;-53
2023/03/30 10:11:53;;;;;;;27.05;6.15;;;;;;;14.54;72.29;100577.91;5053160;28;20028;-51
2023/03/30 10:14:34;;;;;;;28.50;5.75;;;;;;;14.21;75.68;100592.31;5056331;28;20040;-54
2023/03/30 10:17:01;;;;;;;23.92;5.22;;;;;;;13.99;74.60;100597.25;5055292;28;20037;-55
2023/03/30 10:19:27;;;;;;;20.10;4.90;;;;;;;13.87;75.86;100599.69;5056274;28;20032;-55
2023/03/30 10:21:58;;;;;;;23.60;5.20;;;;;;;13.71;75.67;100596.94;5056420;28;20021;-55
2023/03/30 10:24:30;;;;;;;25.90;5.93;;;;;;;13.67;76.10;100595.13;5055582;28;20032;-55
2023/03/30 10:27:09;;;;;;;25.40;6.13;;;;;;;13.72;77.04;100588.28;5055868;28;20074;-56
2023/03/30 10:29:35;;;;;;;25.88;5.90;;;;;;;13.94;77.01;100594.63;5056265;28;20033;-55
2023/03/30 10:32:09;;;;;;;25.25;5.55;;;;;;;14.67;73.69;100592.78;5055256;28;20048;-54
2023/03/30 10:34:41;;;;;;;24.98;6.25;;;;;;;15.23;69.17;100588.84;5056311;28;20024;-55
2023/03/30 10:37:12;;;;;;;21.42;5.63;;;;;;;15.11;69.77;100596.56;5055240;28;20036;-63
2023/03/30 10:39:41;;;;;;;26.00;5.35;;;;;;;14.77;69.53;100584.22;5055870;28;20032;-53
2023/03/30 10:42:12;;;;;;;24.52;5.72;;;;;;;15.46;69.97;100581.19;5055769;28;20091;-52
2023/03/30 10:44:49;;;;;;;24.33;5.63;;;;;;;15.68;67.23;100583.91;5055292;28;20021;-54
2023/03/30 10:47:41;;;;;;;27.23;5.82;;;;;;;15.63;66.64;100598.59;5055580;28;20508;-53
2023/03/30 10:50:26;;;;;;;29.42;5.88;;;;;;;15.40;66.49;100596.75;5051024;28;20044;-53
2023/03/30 10:53:08;;;;;;;30.15;5.78;;;;;;;15.02;67.11;100596.50;5055183;28;20013;-55
2023/03/30 10:55:51;;;;;;;21.42;4.65;;;;;;;14.79;68.60;100586.81;5055818;28;20109;-56
2023/03/30 10:58:44;;;;;;;22.90;5.10;;;;;;;14.57;68.03;100598.69;5054508;28;20029;-54
2023/03/30 11:01:32;;;;;;;16.98;4.68;;;;;;;14.26;69.87;100604.44;5055020;28;20565;-54
2023/03/30 11:04:05;;;;;;;21.83;5.05;;;;;;;14.08;71.09;100599.06;5055279;28;20083;-52
2023/03/30 11:06:34;;;;;;;24.10;4.70;;;;;;;13.96;71.83;100605.00;5054702;28;20017;-53
2023/03/30 11:09:04;;;;;;;21.95;5.30;;;;;;;13.92;72.26;100600.63;5055283;28;20071;-56
2023/03/30 11:11:43;;;;;;;23.45;5.53;;;;;;;14.18;73.33;100597.44;5055360;28;20033;-55
2023/03/30 11:14:18;;;;;;;23.00;5.18;;;;;;;15.29;70.26;100598.41;5054252;28;20527;-55
2023/03/30 11:16:56;;;;;;;17.27;4.38;;;;;;;16.13;66.35;100610.09;5055291;28;20029;-55
2023/03/30 11:19:34;;;;;;;20.02;5.82;;;;;;;16.62;62.45;100598.91;5054607;28;20074;-54
2023/03/30 11:22:36;;;;;;;19.60;4.85;;;;;;;17.28;61.27;100601.47;5055111;28;20025;-54
2023/03/30 11:25:15;;;;;;;18.92;5.10;;;;;;;17.57;56.75;100592.72;5054971;28;20036;-54
2023/03/30 11:27:52;;;;;;;17.52;4.50;;;;;;;17.56;56.17;100591.00;5054300;28;20535;-54
2023/03/30 11:30:25;;;;;;;16.30;4.50;;;;;;;17.47;56.10;100591.03;5054878;28;20059;-56